Time,TemperatureF,DewpointF,PressureIn,WindDirection,WindDirectionDegrees,WindSpeedMPH,WindSpeedGustMPH,Humidity,HourlyPrecipIn,Conditions,Clouds,dailyrainin,SolarRadiationWatts/m^2,SoftwareType,DateUTC
2013-01-31 06:02:00,31.0,29.0,-100.00,SSW,200,3.0,5.0,94,0.00,,,0.00,1.000000,,2013-01-31 14:02:00,
2013-01-31 06:32:00,31.0,29.0,-100.00,SW,226,3.0,6.0,94,0.00,,,0.00,1.000000,,2013-01-31 14:32:00,
2013-01-31 06:42:00,31.0,29.0,-100.00,SW,226,3.0,6.0,94,0.00,,,0.00,1.000000,,2013-01-31 14:42:00,
2013-01-31 06:52:00,31.0,29.0,-100.00,SW,226,3.0,6.0,94,0.00,,,0.00,1.000000,,2013-01-31 14:52:00,
2013-01-31 07:02:00,31.0,29.0,-100.00,SW,226,3.0,6.0,94,0.00,,,0.00,1.000000,,2013-01-31 15:02:00,
2013-01-31 07:32:00,31.0,29.0,-100.00,SSW,203,3.0,7.0,94,0.00,,,0.00,1.000000,,2013-01-31 15:32:00,
2013-01-31 07:42:00,31.0,29.0,-100.00,SSW,203,3.0,7.0,94,0.00,,,0.00,1.000000,,2013-01-31 15:42:00,
2013-01-31 07:52:00,31.0,29.0,-100.00,SSW,203,3.0,7.0,94,0.00,,,0.00,1.000000,,2013-01-31 15:52:00,
2013-01-31 08:03:00,31.0,29.0,-100.00,SSW,203,3.0,7.0,94,0.00,,,0.00,1.000000,,2013-01-31 16:03:00,
2013-01-31 08:33:00,30.0,29.0,-100.00,SSW,205,0.0,5.0,95,0.00,,,0.00,18.000000,,2013-01-31 16:33:00,
2013-01-31 08:42:00,30.0,29.0,-100.00,SSW,205,0.0,5.0,95,0.00,,,0.00,18.000000,,2013-01-31 16:42:00,
2013-01-31 08:52:00,30.0,29.0,-100.00,SSW,205,0.0,5.0,95,0.00,,,0.00,18.000000,,2013-01-31 16:52:00,
2013-01-31 09:02:00,30.0,29.0,-100.00,SSW,205,0.0,5.0,95,0.00,,,0.00,18.000000,,2013-01-31 17:02:00,
2013-01-31 09:32:00,34.0,32.0,-100.00,NNW,340,2.0,7.0,94,0.00,,,0.00,85.000000,,2013-01-31 17:32:00,
2013-01-31 09:44:00,34.0,32.0,-100.00,NNW,340,2.0,7.0,94,0.00,,,0.00,85.000000,,2013-01-31 17:44:00,
2013-01-31 09:53:00,34.0,32.0,-100.00,NNW,340,2.0,7.0,94,0.00,,,0.00,85.000000,,2013-01-31 17:53:00,
2013-01-31 10:02:00,34.0,32.0,-100.00,NNW,340,2.0,7.0,94,0.00,,,0.00,85.000000,,2013-01-31 18:02:00,
2013-01-31 10:32:00,39.0,36.0,-100.00,ENE,75,2.0,5.0,89,0.00,,,0.00,179.000000,,2013-01-31 18:32:00,
2013-01-31 10:43:00,39.0,36.0,-100.00,ENE,75,2.0,5.0,89,0.00,,,0.00,179.000000,,2013-01-31 18:43:00,
2013-01-31 10:52:00,39.0,36.0,-100.00,ENE,75,2.0,5.0,89,0.00,,,0.00,179.000000,,2013-01-31 18:52:00,
2013-01-31 11:02:00,39.0,36.0,-100.00,ENE,75,2.0,5.0,89,0.00,,,0.00,179.000000,,2013-01-31 19:02:00,
2013-01-31 11:33:00,45.0,37.0,-100.00,East,80,2.0,6.0,73,0.00,,,0.00,338.000000,,2013-01-31 19:33:00,
2013-01-31 11:43:00,45.0,37.0,-100.00,East,80,2.0,6.0,73,0.00,,,0.00,338.000000,,2013-01-31 19:43:00,
2013-01-31 11:52:00,45.0,37.0,-100.00,East,80,2.0,6.0,73,0.00,,,0.00,338.000000,,2013-01-31 19:52:00,
2013-01-31 12:02:00,45.0,37.0,-100.00,East,80,2.0,6.0,73,0.00,,,0.00,338.000000,,2013-01-31 20:02:00,
2013-01-31 13:32:00,52.0,37.0,-100.00,SSE,151,3.0,7.0,56,-99.99,,,0.00,302.000000,,2013-01-31 21:32:00,
2013-01-31 13:42:00,52.0,37.0,-100.00,SSE,151,3.0,7.0,56,-99.99,,,0.00,302.000000,,2013-01-31 21:42:00,
2013-01-31 13:52:00,52.0,37.0,-100.00,SSE,151,3.0,7.0,56,-99.99,,,0.00,302.000000,,2013-01-31 21:52:00,
2013-01-31 14:02:00,52.0,37.0,-100.00,SSE,151,3.0,7.0,56,-99.99,,,0.00,302.000000,,2013-01-31 22:02:00,
2013-01-31 14:33:00,51.0,32.0,-100.00,North,7,8.0,12.0,48,0.00,,,0.00,348.000000,,2013-01-31 22:33:00,
2013-01-31 14:42:00,51.0,32.0,-100.00,North,7,8.0,12.0,48,0.00,,,0.00,348.000000,,2013-01-31 22:42:00,
2013-01-31 14:52:00,51.0,32.0,-100.00,North,7,8.0,12.0,48,0.00,,,0.00,348.000000,,2013-01-31 22:52:00,
2013-01-31 15:02:00,51.0,32.0,-100.00,North,7,8.0,12.0,48,0.00,,,0.00,348.000000,,2013-01-31 23:02:00,
2013-01-31 15:32:00,52.0,36.0,-100.00,ENE,69,3.0,9.0,54,0.00,,,0.00,152.000000,,2013-01-31 23:32:00,
2013-01-31 15:42:00,52.0,36.0,-100.00,ENE,69,3.0,9.0,54,0.00,,,0.00,152.000000,,2013-01-31 23:42:00,
2013-01-31 15:52:00,52.0,36.0,-100.00,ENE,69,3.0,9.0,54,0.00,,,0.00,152.000000,,2013-01-31 23:52:00,
2013-01-31 16:01:00,52.0,36.0,-100.00,ENE,69,3.0,9.0,54,0.00,,,0.00,152.000000,,2013-02-01 00:01:00,
2013-01-31 16:32:00,51.0,34.0,-100.00,South,173,5.0,7.0,52,0.00,,,0.00,131.000000,,2013-02-01 00:32:00,
2013-01-31 16:42:00,51.0,34.0,-100.00,South,173,5.0,7.0,52,0.00,,,0.00,131.000000,,2013-02-01 00:42:00,
2013-01-31 16:52:00,51.0,34.0,-100.00,South,173,5.0,7.0,52,0.00,,,0.00,131.000000,,2013-02-01 00:52:00,
2013-01-31 17:01:00,51.0,34.0,-100.00,South,173,5.0,7.0,52,0.00,,,0.00,131.000000,,2013-02-01 01:01:00,
2013-01-31 17:32:00,47.0,35.0,-100.00,NW,312,5.0,7.0,64,0.00,,,-99.99,31.000000,,2013-02-01 01:32:00,
2013-01-31 17:42:00,47.0,35.0,-100.00,NW,312,5.0,7.0,64,0.00,,,-99.99,31.000000,,2013-02-01 01:42:00,
2013-01-31 17:52:00,47.0,35.0,-100.00,NW,312,5.0,7.0,64,0.00,,,-99.99,31.000000,,2013-02-01 01:52:00,
2013-01-31 18:01:00,47.0,35.0,-100.00,NW,312,5.0,7.0,64,0.00,,,-99.99,31.000000,,2013-02-01 02:01:00,
2013-01-31 18:32:00,44.0,36.0,-100.00,West,271,2.0,7.0,73,0.00,,,0.00,1.000000,,2013-02-01 02:32:00,
2013-01-31 18:42:00,44.0,36.0,-100.00,West,271,2.0,7.0,73,0.00,,,0.00,1.000000,,2013-02-01 02:42:00,
2013-01-31 18:52:00,44.0,36.0,-100.00,West,271,2.0,7.0,73,0.00,,,0.00,1.000000,,2013-02-01 02:52:00,
2013-01-31 19:01:00,44.0,36.0,-100.00,West,271,2.0,7.0,73,0.00,,,0.00,1.000000,,2013-02-01 03:01:00,
2013-01-31 19:33:00,44.0,36.0,-100.00,West,272,4.0,8.0,72,0.00,,,0.00,1.000000,,2013-02-01 03:33:00,
2013-01-31 19:42:00,44.0,36.0,-100.00,West,272,4.0,8.0,72,0.00,,,0.00,1.000000,,2013-02-01 03:42:00,
2013-01-31 19:52:00,44.0,36.0,-100.00,West,272,4.0,8.0,72,0.00,,,0.00,1.000000,,2013-02-01 03:52:00,
2013-01-31 20:02:00,44.0,36.0,-100.00,West,272,4.0,8.0,72,0.00,,,0.00,1.000000,,2013-02-01 04:02:00,
2013-01-31 20:32:00,43.0,37.0,-100.00,West,280,5.0,7.0,80,0.00,,,0.00,1.000000,,2013-02-01 04:32:00,
2013-01-31 20:42:00,43.0,37.0,-100.00,West,280,5.0,7.0,80,0.00,,,0.00,1.000000,,2013-02-01 04:42:00,
2013-01-31 20:52:00,43.0,37.0,-100.00,West,280,5.0,7.0,80,0.00,,,0.00,1.000000,,2013-02-01 04:52:00,
2013-01-31 21:03:00,43.0,37.0,-100.00,West,280,5.0,7.0,80,0.00,,,0.00,1.000000,,2013-02-01 05:03:00,
2013-01-31 21:32:00,41.0,35.0,-100.00,SW,216,4.0,8.0,78,0.00,,,0.00,1.000000,,2013-02-01 05:32:00,
2013-01-31 21:42:00,41.0,35.0,-100.00,SW,216,4.0,8.0,78,0.00,,,0.00,1.000000,,2013-02-01 05:42:00,
2013-01-31 21:52:00,41.0,35.0,-100.00,SW,216,4.0,8.0,78,0.00,,,0.00,1.000000,,2013-02-01 05:52:00,
2013-01-31 22:02:00,41.0,35.0,-100.00,SW,216,4.0,8.0,78,0.00,,,0.00,1.000000,,2013-02-01 06:02:00,
2013-01-31 22:32:00,39.0,33.0,-100.00,WSW,238,4.0,7.0,80,0.00,,,0.00,1.000000,,2013-02-01 06:32:00,
2013-01-31 22:42:00,39.0,33.0,-100.00,WSW,238,4.0,7.0,80,0.00,,,0.00,1.000000,,2013-02-01 06:42:00,
2013-01-31 22:52:00,39.0,33.0,-100.00,WSW,238,4.0,7.0,80,0.00,,,0.00,1.000000,,2013-02-01 06:52:00,
2013-01-31 23:01:00,39.0,33.0,-100.00,WSW,238,4.0,7.0,80,0.00,,,0.00,1.000000,,2013-02-01 07:01:00,
2013-01-31 23:32:00,37.0,34.0,-100.00,SSW,208,5.0,6.0,89,0.00,,,0.00,1.000000,,2013-02-01 07:32:00,
2013-01-31 23:42:00,37.0,34.0,-100.00,SSW,208,5.0,6.0,89,0.00,,,0.00,1.000000,,2013-02-01 07:42:00,
2013-01-31 23:52:00,37.0,34.0,-100.00,SSW,208,5.0,6.0,89,0.00,,,0.00,1.000000,,2013-02-01 07:52:00,